sensor_id;sensor_type;location;lat;lon;timestamp;P1;durP1;ratioP1;P2;durP2;ratioP2
2404;SDS011;1213;43.206;27.922;2022-09-03T00:04:54;1.80;;;1.70;;
2404;SDS011;1213;43.206;27.922;2022-09-03T00:07:39;2.00;;;1.80;;
2404;SDS011;1213;43.206;27.922;2022-09-03T00:10:13;3.90;;;2.10;;
2404;SDS011;1213;43.206;27.922;2022-09-03T00:12:46;6.10;;;2.50;;
2404;SDS011;1213;43.206;27.922;2022-09-03T00:15:18;2.20;;;2.00;;
2404;SDS011;1213;43.206;27.922;2022-09-03T00:20:16;1.90;;;1.70;;
2404;SDS011;1213;43.206;27.922;2022-09-03T00:22:50;1.70;;;1.60;;
2404;SDS011;1213;43.206;27.922;2022-09-03T00:25:38;2.50;;;1.57;;
2404;SDS011;1213;43.206;27.922;2022-09-03T00:28:11;1.70;;;1.60;;
2404;SDS011;1213;43.206;27.922;2022-09-03T00:30:41;3.10;;;2.23;;
2404;SDS011;1213;43.206;27.922;2022-09-03T00:33:11;1.90;;;1.73;;
2404;SDS011;1213;43.206;27.922;2022-09-03T00:38:14;3.63;;;1.80;;
2404;SDS011;1213;43.206;27.922;2022-09-03T00:49:05;2.20;;;1.83;;
2404;SDS011;1213;43.206;27.922;2022-09-03T01:00:30;2.17;;;2.00;;
2404;SDS011;1213;43.206;27.922;2022-09-03T01:13:37;9.23;;;2.67;;
2404;SDS011;1213;43.206;27.922;2022-09-03T01:18:55;3.37;;;2.10;;
2404;SDS011;1213;43.206;27.922;2022-09-03T01:27:31;2.90;;;2.13;;
2404;SDS011;1213;43.206;27.922;2022-09-03T01:30:09;2.60;;;1.77;;
2404;SDS011;1213;43.206;27.922;2022-09-03T01:33:00;2.83;;;2.27;;
2404;SDS011;1213;43.206;27.922;2022-09-03T01:35:47;2.80;;;2.50;;
2404;SDS011;1213;43.206;27.922;2022-09-03T01:47:42;2.17;;;2.00;;
2404;SDS011;1213;43.206;27.922;2022-09-03T01:49:41;1.73;;;1.63;;
2404;SDS011;1213;43.206;27.922;2022-09-03T01:52:19;1.57;;;1.47;;
2404;SDS011;1213;43.206;27.922;2022-09-03T01:55:05;1.97;;;1.43;;
2404;SDS011;1213;43.206;27.922;2022-09-03T01:58:13;1.50;;;1.40;;
2404;SDS011;1213;43.206;27.922;2022-09-03T02:00:40;2.70;;;1.30;;
2404;SDS011;1213;43.206;27.922;2022-09-03T02:03:09;1.50;;;1.17;;
2404;SDS011;1213;43.206;27.922;2022-09-03T02:05:38;1.93;;;1.50;;
2404;SDS011;1213;43.206;27.922;2022-09-03T02:08:07;1.33;;;1.23;;
2404;SDS011;1213;43.206;27.922;2022-09-03T02:13:17;1.57;;;1.30;;
2404;SDS011;1213;43.206;27.922;2022-09-03T02:15:51;2.90;;;1.50;;
2404;SDS011;1213;43.206;27.922;2022-09-03T02:18:19;1.70;;;1.17;;
2404;SDS011;1213;43.206;27.922;2022-09-03T02:20:51;2.40;;;1.10;;
2404;SDS011;1213;43.206;27.922;2022-09-03T02:23:18;3.93;;;1.37;;
2404;SDS011;1213;43.206;27.922;2022-09-03T02:25:47;1.97;;;1.77;;
2404;SDS011;1213;43.206;27.922;2022-09-03T02:28:16;2.43;;;1.77;;
2404;SDS011;1213;43.206;27.922;2022-09-03T02:30:43;2.43;;;1.73;;
2404;SDS011;1213;43.206;27.922;2022-09-03T02:33:08;2.60;;;1.43;;
2404;SDS011;1213;43.206;27.922;2022-09-03T02:35:34;1.67;;;1.53;;
2404;SDS011;1213;43.206;27.922;2022-09-03T02:38:14;1.33;;;1.23;;
2404;SDS011;1213;43.206;27.922;2022-09-03T02:40:41;2.00;;;1.67;;
2404;SDS011;1213;43.206;27.922;2022-09-03T02:43:09;1.50;;;1.40;;
2404;SDS011;1213;43.206;27.922;2022-09-03T02:45:41;2.03;;;1.80;;
2404;SDS011;1213;43.206;27.922;2022-09-03T02:48:11;1.70;;;1.60;;
2404;SDS011;1213;43.206;27.922;2022-09-03T02:50:41;2.57;;;1.77;;
2404;SDS011;1213;43.206;27.922;2022-09-03T02:53:07;1.83;;;1.50;;
2404;SDS011;1213;43.206;27.922;2022-09-03T02:55:32;1.97;;;1.87;;
2404;SDS011;1213;43.206;27.922;2022-09-03T02:57:58;1.70;;;1.60;;
2404;SDS011;1213;43.206;27.922;2022-09-03T03:00:24;1.97;;;1.70;;
2404;SDS011;1213;43.206;27.922;2022-09-03T03:02:50;1.80;;;1.70;;
2404;SDS011;1213;43.206;27.922;2022-09-03T03:05:19;2.90;;;2.20;;
2404;SDS011;1213;43.206;27.922;2022-09-03T03:07:51;1.77;;;1.67;;
2404;SDS011;1213;43.206;27.922;2022-09-03T03:10:17;2.47;;;2.27;;
2404;SDS011;1213;43.206;27.922;2022-09-03T03:12:42;3.20;;;2.53;;
2404;SDS011;1213;43.206;27.922;2022-09-03T03:15:08;2.40;;;2.20;;
2404;SDS011;1213;43.206;27.922;2022-09-03T03:17:33;2.50;;;2.10;;
2404;SDS011;1213;43.206;27.922;2022-09-03T03:19:59;2.23;;;2.13;;
2404;SDS011;1213;43.206;27.922;2022-09-03T03:22:24;3.03;;;2.83;;
2404;SDS011;1213;43.206;27.922;2022-09-03T03:24:50;2.40;;;2.20;;
2404;SDS011;1213;43.206;27.922;2022-09-03T03:27:16;2.63;;;2.27;;
2404;SDS011;1213;43.206;27.922;2022-09-03T03:29:42;2.53;;;2.20;;
2404;SDS011;1213;43.206;27.922;2022-09-03T03:32:08;2.17;;;2.07;;
2404;SDS011;1213;43.206;27.922;2022-09-03T03:34:33;2.23;;;2.03;;
2404;SDS011;1213;43.206;27.922;2022-09-03T03:36:59;3.60;;;1.83;;
2404;SDS011;1213;43.206;27.922;2022-09-03T03:39:24;2.30;;;2.00;;
2404;SDS011;1213;43.206;27.922;2022-09-03T03:41:50;4.57;;;2.00;;
2404;SDS011;1213;43.206;27.922;2022-09-03T03:44:16;3.97;;;1.83;;
2404;SDS011;1213;43.206;27.922;2022-09-03T03:46:44;2.70;;;1.90;;
2404;SDS011;1213;43.206;27.922;2022-09-03T03:49:10;2.30;;;2.10;;
2404;SDS011;1213;43.206;27.922;2022-09-03T03:51:36;3.00;;;1.97;;
2404;SDS011;1213;43.206;27.922;2022-09-03T03:54:03;1.67;;;1.57;;
2404;SDS011;1213;43.206;27.922;2022-09-03T03:56:29;3.83;;;1.70;;
2404;SDS011;1213;43.206;27.922;2022-09-03T03:58:54;3.17;;;2.20;;
2404;SDS011;1213;43.206;27.922;2022-09-03T04:01:21;5.20;;;1.90;;
2404;SDS011;1213;43.206;27.922;2022-09-03T04:03:49;2.33;;;1.97;;
2404;SDS011;1213;43.206;27.922;2022-09-03T04:06:16;2.20;;;2.00;;
2404;SDS011;1213;43.206;27.922;2022-09-03T04:08:43;2.10;;;1.90;;
2404;SDS011;1213;43.206;27.922;2022-09-03T04:11:12;2.40;;;2.20;;
2404;SDS011;1213;43.206;27.922;2022-09-03T04:13:40;2.57;;;2.17;;
2404;SDS011;1213;43.206;27.922;2022-09-03T04:16:10;1.63;;;1.53;;
2404;SDS011;1213;43.206;27.922;2022-09-03T04:18:41;2.10;;;2.00;;
2404;SDS011;1213;43.206;27.922;2022-09-03T04:21:08;4.90;;;1.77;;
2404;SDS011;1213;43.206;27.922;2022-09-03T04:23:34;4.60;;;1.37;;
2404;SDS011;1213;43.206;27.922;2022-09-03T04:26:02;2.37;;;1.87;;
2404;SDS011;1213;43.206;27.922;2022-09-03T04:28:28;1.93;;;1.73;;
2404;SDS011;1213;43.206;27.922;2022-09-03T04:30:58;1.90;;;1.53;;
2404;SDS011;1213;43.206;27.922;2022-09-03T04:33:29;2.87;;;1.90;;
2404;SDS011;1213;43.206;27.922;2022-09-03T04:36:03;1.80;;;1.70;;
2404;SDS011;1213;43.206;27.922;2022-09-03T04:38:36;2.30;;;2.10;;
2404;SDS011;1213;43.206;27.922;2022-09-03T04:41:03;2.33;;;1.93;;
2404;SDS011;1213;43.206;27.922;2022-09-03T04:43:30;2.03;;;1.90;;
2404;SDS011;1213;43.206;27.922;2022-09-03T04:45:56;2.23;;;1.87;;
2404;SDS011;1213;43.206;27.922;2022-09-03T04:48:23;6.07;;;2.10;;
2404;SDS011;1213;43.206;27.922;2022-09-03T04:50:49;2.47;;;2.20;;
2404;SDS011;1213;43.206;27.922;2022-09-03T04:53:15;1.47;;;1.37;;
2404;SDS011;1213;43.206;27.922;2022-09-03T04:55:40;4.57;;;2.27;;
2404;SDS011;1213;43.206;27.922;2022-09-03T04:58:06;3.43;;;2.73;;
2404;SDS011;1213;43.206;27.922;2022-09-03T05:00:32;6.23;;;2.77;;
2404;SDS011;1213;43.206;27.922;2022-09-03T05:03:01;2.37;;;2.17;;
2404;SDS011;1213;43.206;27.922;2022-09-03T05:05:29;2.87;;;2.10;;
2404;SDS011;1213;43.206;27.922;2022-09-03T05:08:00;2.93;;;2.30;;
2404;SDS011;1213;43.206;27.922;2022-09-03T05:10:27;2.47;;;2.27;;
2404;SDS011;1213;43.206;27.922;2022-09-03T05:13:04;2.67;;;2.47;;
2404;SDS011;1213;43.206;27.922;2022-09-03T05:15:31;2.90;;;2.60;;
2404;SDS011;1213;43.206;27.922;2022-09-03T05:17:57;2.20;;;2.00;;
2404;SDS011;1213;43.206;27.922;2022-09-03T05:20:24;2.63;;;1.90;;
2404;SDS011;1213;43.206;27.922;2022-09-03T05:22:50;3.20;;;2.70;;
2404;SDS011;1213;43.206;27.922;2022-09-03T05:25:16;2.20;;;1.80;;
2404;SDS011;1213;43.206;27.922;2022-09-03T05:27:42;3.27;;;2.97;;
2404;SDS011;1213;43.206;27.922;2022-09-03T05:30:07;2.60;;;2.23;;
2404;SDS011;1213;43.206;27.922;2022-09-03T05:32:33;2.93;;;2.67;;
2404;SDS011;1213;43.206;27.922;2022-09-03T05:34:59;4.37;;;3.27;;
2404;SDS011;1213;43.206;27.922;2022-09-03T05:37:24;4.17;;;2.80;;
2404;SDS011;1213;43.206;27.922;2022-09-03T05:39:50;4.10;;;2.07;;
2404;SDS011;1213;43.206;27.922;2022-09-03T05:42:15;3.23;;;2.10;;
2404;SDS011;1213;43.206;27.922;2022-09-03T05:44:41;3.20;;;2.90;;
2404;SDS011;1213;43.206;27.922;2022-09-03T05:47:07;2.87;;;2.67;;
2404;SDS011;1213;43.206;27.922;2022-09-03T05:49:33;5.13;;;2.50;;
2404;SDS011;1213;43.206;27.922;2022-09-03T05:51:58;4.07;;;2.83;;
2404;SDS011;1213;43.206;27.922;2022-09-03T05:54:24;2.77;;;2.57;;
2404;SDS011;1213;43.206;27.922;2022-09-03T05:56:50;3.73;;;3.20;;
2404;SDS011;1213;43.206;27.922;2022-09-03T05:59:16;2.80;;;2.60;;
2404;SDS011;1213;43.206;27.922;2022-09-03T06:01:42;3.30;;;3.00;;
2404;SDS011;1213;43.206;27.922;2022-09-03T06:04:13;3.90;;;2.77;;
2404;SDS011;1213;43.206;27.922;2022-09-03T06:06:40;4.13;;;2.63;;
2404;SDS011;1213;43.206;27.922;2022-09-03T06:09:11;3.63;;;2.93;;
2404;SDS011;1213;43.206;27.922;2022-09-03T06:11:41;3.73;;;2.80;;
2404;SDS011;1213;43.206;27.922;2022-09-03T06:14:09;4.70;;;3.63;;
2404;SDS011;1213;43.206;27.922;2022-09-03T06:16:39;3.93;;;3.53;;
2404;SDS011;1213;43.206;27.922;2022-09-03T06:19:07;5.83;;;3.17;;
2404;SDS011;1213;43.206;27.922;2022-09-03T06:21:38;3.70;;;2.73;;
2404;SDS011;1213;43.206;27.922;2022-09-03T06:24:07;3.17;;;2.87;;
2404;SDS011;1213;43.206;27.922;2022-09-03T06:26:33;3.47;;;3.17;;
2404;SDS011;1213;43.206;27.922;2022-09-03T06:28:59;4.23;;;3.63;;
2404;SDS011;1213;43.206;27.922;2022-09-03T06:31:25;3.03;;;2.63;;
2404;SDS011;1213;43.206;27.922;2022-09-03T06:33:51;4.73;;;3.20;;
2404;SDS011;1213;43.206;27.922;2022-09-03T06:36:18;4.50;;;4.10;;
2404;SDS011;1213;43.206;27.922;2022-09-03T06:38:45;5.70;;;3.43;;
2404;SDS011;1213;43.206;27.922;2022-09-03T06:41:13;4.40;;;3.80;;
2404;SDS011;1213;43.206;27.922;2022-09-03T06:43:49;7.50;;;3.93;;
2404;SDS011;1213;43.206;27.922;2022-09-03T06:46:21;5.87;;;3.60;;
2404;SDS011;1213;43.206;27.922;2022-09-03T06:48:48;6.80;;;3.70;;
2404;SDS011;1213;43.206;27.922;2022-09-03T06:51:19;6.70;;;4.27;;
2404;SDS011;1213;43.206;27.922;2022-09-03T06:53:47;4.23;;;3.70;;
2404;SDS011;1213;43.206;27.922;2022-09-03T06:56:16;4.03;;;3.37;;
2404;SDS011;1213;43.206;27.922;2022-09-03T06:58:44;4.70;;;3.33;;
2404;SDS011;1213;43.206;27.922;2022-09-03T07:03:42;4.80;;;4.00;;
2404;SDS011;1213;43.206;27.922;2022-09-03T07:06:10;5.90;;;3.97;;
2404;SDS011;1213;43.206;27.922;2022-09-03T07:08:38;3.73;;;3.10;;
2404;SDS011;1213;43.206;27.922;2022-09-03T07:11:04;5.80;;;4.13;;
2404;SDS011;1213;43.206;27.922;2022-09-03T07:13:38;4.33;;;2.87;;
2404;SDS011;1213;43.206;27.922;2022-09-03T07:16:09;6.43;;;4.23;;
2404;SDS011;1213;43.206;27.922;2022-09-03T07:18:37;3.40;;;3.10;;
2404;SDS011;1213;43.206;27.922;2022-09-03T07:21:05;3.47;;;3.07;;
2404;SDS011;1213;43.206;27.922;2022-09-03T07:23:32;5.80;;;3.20;;
2404;SDS011;1213;43.206;27.922;2022-09-03T07:26:00;5.30;;;4.70;;
2404;SDS011;1213;43.206;27.922;2022-09-03T07:28:28;5.30;;;4.00;;
2404;SDS011;1213;43.206;27.922;2022-09-03T07:31:00;4.13;;;3.60;;
2404;SDS011;1213;43.206;27.922;2022-09-03T07:33:29;5.00;;;3.83;;
2404;SDS011;1213;43.206;27.922;2022-09-03T07:35:55;4.23;;;3.40;;
2404;SDS011;1213;43.206;27.922;2022-09-03T07:38:25;5.47;;;4.23;;
2404;SDS011;1213;43.206;27.922;2022-09-03T07:40:56;3.20;;;2.80;;
2404;SDS011;1213;43.206;27.922;2022-09-03T07:43:24;4.80;;;4.30;;
2404;SDS011;1213;43.206;27.922;2022-09-03T07:45:50;5.90;;;3.63;;
2404;SDS011;1213;43.206;27.922;2022-09-03T07:48:16;3.63;;;3.27;;
2404;SDS011;1213;43.206;27.922;2022-09-03T07:50:42;4.73;;;3.50;;
2404;SDS011;1213;43.206;27.922;2022-09-03T07:53:07;3.30;;;2.50;;
2404;SDS011;1213;43.206;27.922;2022-09-03T07:55:32;5.23;;;3.73;;
2404;SDS011;1213;43.206;27.922;2022-09-03T07:57:58;4.53;;;4.13;;
2404;SDS011;1213;43.206;27.922;2022-09-03T08:00:24;6.93;;;3.17;;
2404;SDS011;1213;43.206;27.922;2022-09-03T08:02:52;5.10;;;3.57;;
2404;SDS011;1213;43.206;27.922;2022-09-03T08:05:19;3.83;;;3.30;;
2404;SDS011;1213;43.206;27.922;2022-09-03T08:07:46;7.93;;;4.23;;
2404;SDS011;1213;43.206;27.922;2022-09-03T08:10:12;4.37;;;3.97;;
2404;SDS011;1213;43.206;27.922;2022-09-03T08:12:39;4.33;;;3.73;;
2404;SDS011;1213;43.206;27.922;2022-09-03T08:15:04;7.00;;;4.87;;
2404;SDS011;1213;43.206;27.922;2022-09-03T08:17:30;5.97;;;4.90;;
2404;SDS011;1213;43.206;27.922;2022-09-03T08:19:56;4.10;;;2.33;;
2404;SDS011;1213;43.206;27.922;2022-09-03T08:22:23;8.43;;;3.77;;
2404;SDS011;1213;43.206;27.922;2022-09-03T08:24:49;4.33;;;3.83;;
2404;SDS011;1213;43.206;27.922;2022-09-03T08:27:15;3.30;;;3.00;;
2404;SDS011;1213;43.206;27.922;2022-09-03T08:29:40;7.07;;;4.40;;
2404;SDS011;1213;43.206;27.922;2022-09-03T08:32:06;4.47;;;4.07;;
2404;SDS011;1213;43.206;27.922;2022-09-03T08:34:31;4.33;;;3.20;;
2404;SDS011;1213;43.206;27.922;2022-09-03T08:36:57;4.40;;;3.07;;
2404;SDS011;1213;43.206;27.922;2022-09-03T08:39:25;3.80;;;3.50;;
2404;SDS011;1213;43.206;27.922;2022-09-03T08:42:07;3.33;;;2.50;;
2404;SDS011;1213;43.206;27.922;2022-09-03T08:45:05;5.13;;;3.90;;
2404;SDS011;1213;43.206;27.922;2022-09-03T08:47:44;4.40;;;3.30;;
2404;SDS011;1213;43.206;27.922;2022-09-03T08:50:24;5.30;;;3.67;;
2404;SDS011;1213;43.206;27.922;2022-09-03T09:06:44;3.33;;;3.13;;
2404;SDS011;1213;43.206;27.922;2022-09-03T09:09:36;4.90;;;3.87;;
2404;SDS011;1213;43.206;27.922;2022-09-03T09:12:15;5.87;;;4.43;;
2404;SDS011;1213;43.206;27.922;2022-09-03T09:17:29;3.23;;;2.93;;
2404;SDS011;1213;43.206;27.922;2022-09-03T09:20:05;4.47;;;3.20;;
2404;SDS011;1213;43.206;27.922;2022-09-03T09:22:42;4.30;;;3.83;;
2404;SDS011;1213;43.206;27.922;2022-09-03T09:25:19;3.60;;;2.80;;
2404;SDS011;1213;43.206;27.922;2022-09-03T09:28:05;3.40;;;2.80;;
2404;SDS011;1213;43.206;27.922;2022-09-03T09:30:47;4.13;;;2.90;;
2404;SDS011;1213;43.206;27.922;2022-09-03T09:33:14;3.30;;;3.00;;
2404;SDS011;1213;43.206;27.922;2022-09-03T09:35:42;3.20;;;2.67;;
2404;SDS011;1213;43.206;27.922;2022-09-03T09:38:08;4.10;;;3.00;;
2404;SDS011;1213;43.206;27.922;2022-09-03T09:40:39;3.63;;;3.10;;
2404;SDS011;1213;43.206;27.922;2022-09-03T09:43:11;5.20;;;4.33;;
2404;SDS011;1213;43.206;27.922;2022-09-03T09:45:42;3.93;;;2.73;;
2404;SDS011;1213;43.206;27.922;2022-09-03T09:50:44;4.00;;;3.60;;
2404;SDS011;1213;43.206;27.922;2022-09-03T09:53:10;3.40;;;3.10;;
2404;SDS011;1213;43.206;27.922;2022-09-03T09:58:19;3.60;;;2.93;;
2404;SDS011;1213;43.206;27.922;2022-09-03T10:03:55;4.40;;;3.53;;
2404;SDS011;1213;43.206;27.922;2022-09-03T10:06:23;3.87;;;2.80;;
2404;SDS011;1213;43.206;27.922;2022-09-03T10:09:11;3.10;;;2.90;;
2404;SDS011;1213;43.206;27.922;2022-09-03T10:11:40;3.33;;;2.77;;
2404;SDS011;1213;43.206;27.922;2022-09-03T10:14:28;4.33;;;3.00;;
2404;SDS011;1213;43.206;27.922;2022-09-03T10:17:23;3.67;;;3.37;;
2404;SDS011;1213;43.206;27.922;2022-09-03T10:22:55;3.50;;;2.40;;
2404;SDS011;1213;43.206;27.922;2022-09-03T10:25:33;4.80;;;3.07;;
2404;SDS011;1213;43.206;27.922;2022-09-03T10:28:04;4.30;;;3.23;;
2404;SDS011;1213;43.206;27.922;2022-09-03T10:30:36;3.53;;;3.20;;
2404;SDS011;1213;43.206;27.922;2022-09-03T10:33:34;4.70;;;3.03;;
2404;SDS011;1213;43.206;27.922;2022-09-03T10:39:05;3.20;;;2.90;;
2404;SDS011;1213;43.206;27.922;2022-09-03T10:54:58;4.43;;;2.17;;
2404;SDS011;1213;43.206;27.922;2022-09-03T11:00:18;3.40;;;2.87;;
2404;SDS011;1213;43.206;27.922;2022-09-03T11:03:01;2.17;;;2.00;;
2404;SDS011;1213;43.206;27.922;2022-09-03T11:05:34;2.60;;;2.40;;
2404;SDS011;1213;43.206;27.922;2022-09-03T11:11:08;2.20;;;2.00;;
2404;SDS011;1213;43.206;27.922;2022-09-03T11:13:43;2.20;;;2.03;;
2404;SDS011;1213;43.206;27.922;2022-09-03T11:16:19;2.93;;;2.37;;
2404;SDS011;1213;43.206;27.922;2022-09-03T11:19:08;2.53;;;2.00;;
2404;SDS011;1213;43.206;27.922;2022-09-03T11:21:38;2.67;;;2.07;;
2404;SDS011;1213;43.206;27.922;2022-09-03T11:24:09;2.73;;;2.30;;
2404;SDS011;1213;43.206;27.922;2022-09-03T11:26:39;2.00;;;1.80;;
2404;SDS011;1213;43.206;27.922;2022-09-03T11:29:29;4.00;;;2.27;;
2404;SDS011;1213;43.206;27.922;2022-09-03T11:32:08;3.00;;;2.80;;
2404;SDS011;1213;43.206;27.922;2022-09-03T11:34:48;1.90;;;1.80;;
2404;SDS011;1213;43.206;27.922;2022-09-03T11:37:23;2.40;;;2.20;;
2404;SDS011;1213;43.206;27.922;2022-09-03T11:42:37;2.57;;;2.30;;
2404;SDS011;1213;43.206;27.922;2022-09-03T11:45:12;1.97;;;1.80;;
2404;SDS011;1213;43.206;27.922;2022-09-03T11:47:42;2.90;;;2.70;;
2404;SDS011;1213;43.206;27.922;2022-09-03T11:50:29;2.70;;;2.50;;
2404;SDS011;1213;43.206;27.922;2022-09-03T11:55:59;3.63;;;2.30;;
2404;SDS011;1213;43.206;27.922;2022-09-03T11:58:37;2.03;;;1.57;;
2404;SDS011;1213;43.206;27.922;2022-09-03T12:01:10;3.17;;;2.60;;
2404;SDS011;1213;43.206;27.922;2022-09-03T12:03:44;3.10;;;2.40;;
2404;SDS011;1213;43.206;27.922;2022-09-03T12:06:33;2.40;;;1.93;;
2404;SDS011;1213;43.206;27.922;2022-09-03T12:09:11;2.87;;;2.50;;
2404;SDS011;1213;43.206;27.922;2022-09-03T12:11:49;2.50;;;1.70;;
2404;SDS011;1213;43.206;27.922;2022-09-03T12:15:02;3.67;;;2.43;;
2404;SDS011;1213;43.206;27.922;2022-09-03T12:20:12;4.80;;;3.90;;
2404;SDS011;1213;43.206;27.922;2022-09-03T12:22:39;2.57;;;2.30;;
2404;SDS011;1213;43.206;27.922;2022-09-03T12:25:09;3.00;;;2.70;;
2404;SDS011;1213;43.206;27.922;2022-09-03T12:27:39;2.30;;;2.10;;
2404;SDS011;1213;43.206;27.922;2022-09-03T12:30:13;2.73;;;1.97;;
2404;SDS011;1213;43.206;27.922;2022-09-03T12:32:41;2.77;;;2.47;;
2404;SDS011;1213;43.206;27.922;2022-09-03T12:35:21;2.50;;;2.30;;
2404;SDS011;1213;43.206;27.922;2022-09-03T12:37:50;4.07;;;2.27;;
2404;SDS011;1213;43.206;27.922;2022-09-03T12:40:23;2.97;;;2.67;;
2404;SDS011;1213;43.206;27.922;2022-09-03T12:42:50;4.10;;;2.07;;
2404;SDS011;1213;43.206;27.922;2022-09-03T12:45:20;2.23;;;1.87;;
2404;SDS011;1213;43.206;27.922;2022-09-03T12:47:50;2.43;;;1.97;;
2404;SDS011;1213;43.206;27.922;2022-09-03T12:50:21;3.00;;;2.60;;
2404;SDS011;1213;43.206;27.922;2022-09-03T12:52:49;3.83;;;2.33;;
2404;SDS011;1213;43.206;27.922;2022-09-03T13:01:12;2.90;;;2.00;;
2404;SDS011;1213;43.206;27.922;2022-09-03T13:03:54;1.60;;;1.50;;
2404;SDS011;1213;43.206;27.922;2022-09-03T13:06:28;4.33;;;1.90;;
2404;SDS011;1213;43.206;27.922;2022-09-03T13:09:00;2.13;;;1.87;;
2404;SDS011;1213;43.206;27.922;2022-09-03T13:11:27;3.00;;;1.87;;
2404;SDS011;1213;43.206;27.922;2022-09-03T13:14:07;4.40;;;2.17;;
2404;SDS011;1213;43.206;27.922;2022-09-03T13:29:58;2.27;;;2.07;;
2404;SDS011;1213;43.206;27.922;2022-09-03T13:35:32;2.50;;;2.27;;
2404;SDS011;1213;43.206;27.922;2022-09-03T13:40:53;3.17;;;2.43;;
2404;SDS011;1213;43.206;27.922;2022-09-03T13:46:19;3.40;;;2.30;;
2404;SDS011;1213;43.206;27.922;2022-09-03T13:48:56;2.27;;;2.07;;
2404;SDS011;1213;43.206;27.922;2022-09-03T13:51:50;3.03;;;2.10;;
2404;SDS011;1213;43.206;27.922;2022-09-03T13:54:26;2.03;;;1.00;;
2404;SDS011;1213;43.206;27.922;2022-09-03T13:56:58;2.10;;;1.60;;
2404;SDS011;1213;43.206;27.922;2022-09-03T13:59:46;1.30;;;1.20;;
2404;SDS011;1213;43.206;27.922;2022-09-03T14:08:06;5.20;;;2.13;;
2404;SDS011;1213;43.206;27.922;2022-09-03T14:19:00;1.90;;;1.60;;
2404;SDS011;1213;43.206;27.922;2022-09-03T14:26:59;2.03;;;1.73;;
2404;SDS011;1213;43.206;27.922;2022-09-03T14:29:31;1.73;;;1.50;;
2404;SDS011;1213;43.206;27.922;2022-09-03T14:40:21;2.80;;;1.70;;
2404;SDS011;1213;43.206;27.922;2022-09-03T14:46:08;2.20;;;1.90;;
2404;SDS011;1213;43.206;27.922;2022-09-03T15:02:07;1.20;;;1.10;;
2404;SDS011;1213;43.206;27.922;2022-09-03T15:05:00;1.73;;;1.60;;
2404;SDS011;1213;43.206;27.922;2022-09-03T15:07:39;1.37;;;1.27;;
2404;SDS011;1213;43.206;27.922;2022-09-03T15:13:11;1.50;;;1.37;;
2404;SDS011;1213;43.206;27.922;2022-09-03T15:20:51;2.40;;;1.67;;
2404;SDS011;1213;43.206;27.922;2022-09-03T15:23:38;2.10;;;1.90;;
2404;SDS011;1213;43.206;27.922;2022-09-03T15:34:34;2.63;;;2.43;;
2404;SDS011;1213;43.206;27.922;2022-09-03T15:40:02;2.20;;;2.00;;
2404;SDS011;1213;43.206;27.922;2022-09-03T15:42:32;2.40;;;2.00;;
2404;SDS011;1213;43.206;27.922;2022-09-03T15:50:57;4.33;;;2.10;;
2404;SDS011;1213;43.206;27.922;2022-09-03T15:53:51;1.93;;;1.57;;
2404;SDS011;1213;43.206;27.922;2022-09-03T16:01:55;1.03;;;0.90;;
2404;SDS011;1213;43.206;27.922;2022-09-03T16:12:41;3.60;;;2.17;;
2404;SDS011;1213;43.206;27.922;2022-09-03T16:15:26;3.23;;;2.93;;
2404;SDS011;1213;43.206;27.922;2022-09-03T16:21:00;3.23;;;2.00;;
2404;SDS011;1213;43.206;27.922;2022-09-03T16:23:30;2.30;;;1.77;;
2404;SDS011;1213;43.206;27.922;2022-09-03T16:26:12;3.80;;;2.57;;
2404;SDS011;1213;43.206;27.922;2022-09-03T16:28:52;4.00;;;2.60;;
2404;SDS011;1213;43.206;27.922;2022-09-03T16:36:46;3.53;;;2.60;;
2404;SDS011;1213;43.206;27.922;2022-09-03T16:42:13;1.70;;;1.33;;
2404;SDS011;1213;43.206;27.922;2022-09-03T16:51:06;3.33;;;2.97;;
2404;SDS011;1213;43.206;27.922;2022-09-03T17:02:20;5.13;;;3.43;;
2404;SDS011;1213;43.206;27.922;2022-09-03T17:46:25;2.70;;;2.50;;
2404;SDS011;1213;43.206;27.922;2022-09-03T17:48:59;4.33;;;3.93;;
2404;SDS011;1213;43.206;27.922;2022-09-03T17:54:05;3.87;;;2.43;;
2404;SDS011;1213;43.206;27.922;2022-09-03T17:56:39;2.33;;;2.10;;
2404;SDS011;1213;43.206;27.922;2022-09-03T18:01:36;3.57;;;2.27;;
2404;SDS011;1213;43.206;27.922;2022-09-03T18:04:30;3.23;;;2.93;;
2404;SDS011;1213;43.206;27.922;2022-09-03T18:07:08;2.70;;;2.50;;
2404;SDS011;1213;43.206;27.922;2022-09-03T18:15:27;3.43;;;2.50;;
2404;SDS011;1213;43.206;27.922;2022-09-03T18:18:02;2.00;;;1.90;;
2404;SDS011;1213;43.206;27.922;2022-09-03T18:20:39;2.97;;;2.57;;
2404;SDS011;1213;43.206;27.922;2022-09-03T18:26:24;2.10;;;1.90;;
2404;SDS011;1213;43.206;27.922;2022-09-03T18:29:14;1.83;;;1.67;;
2404;SDS011;1213;43.206;27.922;2022-09-03T18:32:03;2.27;;;2.07;;
2404;SDS011;1213;43.206;27.922;2022-09-03T18:34:47;4.20;;;2.97;;
2404;SDS011;1213;43.206;27.922;2022-09-03T18:37:31;1.87;;;1.70;;
2404;SDS011;1213;43.206;27.922;2022-09-03T18:40:17;2.57;;;2.00;;
2404;SDS011;1213;43.206;27.922;2022-09-03T18:43:10;2.93;;;2.50;;
2404;SDS011;1213;43.206;27.922;2022-09-03T18:46:04;2.23;;;2.03;;
2404;SDS011;1213;43.206;27.922;2022-09-03T18:52:27;2.47;;;2.20;;
2404;SDS011;1213;43.206;27.922;2022-09-03T19:02:26;2.03;;;1.57;;
2404;SDS011;1213;43.206;27.922;2022-09-03T19:05:22;3.00;;;2.47;;
2404;SDS011;1213;43.206;27.922;2022-09-03T19:11:28;1.90;;;1.80;;
2404;SDS011;1213;43.206;27.922;2022-09-03T19:17:31;2.17;;;1.97;;
2404;SDS011;1213;43.206;27.922;2022-09-03T19:20:37;1.60;;;1.10;;
2404;SDS011;1213;43.206;27.922;2022-09-03T19:23:24;5.67;;;1.93;;
2404;SDS011;1213;43.206;27.922;2022-09-03T19:26:17;3.40;;;2.83;;
2404;SDS011;1213;43.206;27.922;2022-09-03T19:32:45;3.37;;;3.07;;
2404;SDS011;1213;43.206;27.922;2022-09-03T19:35:45;3.43;;;2.37;;
2404;SDS011;1213;43.206;27.922;2022-09-03T19:39:02;4.23;;;2.60;;
2404;SDS011;1213;43.206;27.922;2022-09-03T19:42:05;2.97;;;2.77;;
2404;SDS011;1213;43.206;27.922;2022-09-03T19:45:18;4.50;;;3.37;;
2404;SDS011;1213;43.206;27.922;2022-09-03T19:48:10;2.70;;;2.50;;
2404;SDS011;1213;43.206;27.922;2022-09-03T19:54:23;2.90;;;2.70;;
2404;SDS011;1213;43.206;27.922;2022-09-03T19:57:11;2.40;;;2.13;;
2404;SDS011;1213;43.206;27.922;2022-09-03T19:59:58;3.50;;;3.20;;
2404;SDS011;1213;43.206;27.922;2022-09-03T20:02:45;2.63;;;2.43;;
2404;SDS011;1213;43.206;27.922;2022-09-03T20:05:31;3.43;;;2.63;;
2404;SDS011;1213;43.206;27.922;2022-09-03T20:08:16;3.33;;;3.03;;
2404;SDS011;1213;43.206;27.922;2022-09-03T20:11:01;14.20;;;4.07;;
2404;SDS011;1213;43.206;27.922;2022-09-03T20:13:29;3.43;;;2.43;;
2404;SDS011;1213;43.206;27.922;2022-09-03T20:16:18;3.27;;;3.00;;
2404;SDS011;1213;43.206;27.922;2022-09-03T20:34:59;3.00;;;2.70;;
2404;SDS011;1213;43.206;27.922;2022-09-03T20:37:37;4.20;;;2.57;;
2404;SDS011;1213;43.206;27.922;2022-09-03T20:43:08;3.93;;;2.60;;
2404;SDS011;1213;43.206;27.922;2022-09-03T20:48:48;2.30;;;2.10;;
2404;SDS011;1213;43.206;27.922;2022-09-03T20:51:16;4.90;;;2.63;;
2404;SDS011;1213;43.206;27.922;2022-09-03T20:56:50;3.60;;;2.07;;
2404;SDS011;1213;43.206;27.922;2022-09-03T21:02:08;2.87;;;2.30;;
2404;SDS011;1213;43.206;27.922;2022-09-03T21:09:59;2.47;;;2.10;;
2404;SDS011;1213;43.206;27.922;2022-09-03T21:12:39;4.80;;;2.47;;
2404;SDS011;1213;43.206;27.922;2022-09-03T21:15:48;2.63;;;2.43;;
2404;SDS011;1213;43.206;27.922;2022-09-03T21:23:41;4.23;;;2.30;;
2404;SDS011;1213;43.206;27.922;2022-09-03T21:26:15;5.57;;;2.50;;
2404;SDS011;1213;43.206;27.922;2022-09-03T21:31:39;3.43;;;2.10;;
2404;SDS011;1213;43.206;27.922;2022-09-03T21:34:16;1.97;;;1.83;;
2404;SDS011;1213;43.206;27.922;2022-09-03T21:36:43;2.40;;;2.20;;
2404;SDS011;1213;43.206;27.922;2022-09-03T21:39:14;3.27;;;2.40;;
2404;SDS011;1213;43.206;27.922;2022-09-03T21:41:52;4.00;;;2.00;;
2404;SDS011;1213;43.206;27.922;2022-09-03T21:47:00;3.73;;;2.60;;
2404;SDS011;1213;43.206;27.922;2022-09-03T21:49:34;2.53;;;2.33;;
2404;SDS011;1213;43.206;27.922;2022-09-03T21:52:11;2.77;;;2.30;;
2404;SDS011;1213;43.206;27.922;2022-09-03T21:54:41;2.53;;;2.33;;
2404;SDS011;1213;43.206;27.922;2022-09-03T22:02:41;2.97;;;1.87;;